createdAt,value
2023-02-14T00:03:18.738Z,19.08
2023-02-14T00:08:20.373Z,13.57
2023-02-14T00:13:21.957Z,16.55
2023-02-14T00:18:43.525Z,16.67
2023-02-14T00:28:46.560Z,16.75
2023-02-14T00:33:48.131Z,14.15
2023-02-14T00:38:49.716Z,12.90
2023-02-14T00:43:53.463Z,17.85
2023-02-14T00:48:55.479Z,30.92
2023-02-14T00:53:57.146Z,30.17
2023-02-14T00:58:58.754Z,17.02
2023-02-14T01:04:00.442Z,16.38
2023-02-14T01:09:02.105Z,14.00
2023-02-14T01:14:03.727Z,14.93
2023-02-14T01:19:05.368Z,15.15
2023-02-14T01:24:08.208Z,15.15
2023-02-14T01:29:09.831Z,17.67
2023-02-14T01:34:11.455Z,19.38
2023-02-14T01:39:17.745Z,17.08
2023-02-14T01:44:19.297Z,13.75
2023-02-14T01:49:27.335Z,12.85
2023-02-14T01:54:31.337Z,13.75
2023-02-14T01:59:38.319Z,17.35
2023-02-14T02:04:44.920Z,12.75
2023-02-14T02:09:53.266Z,16.15
2023-02-14T02:14:57.124Z,13.48
2023-02-14T02:20:01.832Z,14.00
2023-02-14T02:25:09.303Z,14.43
2023-02-14T02:30:28.923Z,16.90
2023-02-14T02:35:52.310Z,15.75
2023-02-14T02:41:02.020Z,23.65
2023-02-14T02:46:29.376Z,19.02
2023-02-14T02:52:18.294Z,17.65
2023-02-14T02:57:26.991Z,20.33
2023-02-14T03:02:56.656Z,17.05
2023-02-14T03:07:58.325Z,26.10
2023-02-14T03:13:31.990Z,68.85
2023-02-14T03:18:42.538Z,90.30
2023-02-14T03:23:57.874Z,106.22
2023-02-14T03:29:07.485Z,99.95
2023-02-14T03:34:46.492Z,66.60
2023-02-14T03:40:09.314Z,73.72
2023-02-14T03:45:16.875Z,32.55
2023-02-14T03:50:20.415Z,24.70
2023-02-14T03:55:36.210Z,22.80
2023-02-14T04:00:42.035Z,35.92
2023-02-14T04:05:46.819Z,17.10
2023-02-14T04:10:49.897Z,20.08
2023-02-14T04:15:51.615Z,48.40
2023-02-14T04:20:53.402Z,28.00
2023-02-14T04:25:55.062Z,23.58
2023-02-14T04:30:57.237Z,19.05
2023-02-14T04:36:00.104Z,21.75
2023-02-14T04:41:02.177Z,100.03
2023-02-14T04:46:04.140Z,44.30
2023-02-14T04:51:06.826Z,32.72
2023-02-14T04:56:08.982Z,23.48
2023-02-14T05:01:10.680Z,44.03
2023-02-14T05:06:12.450Z,45.38
2023-02-14T05:11:14.573Z,64.45
2023-02-14T05:16:16.554Z,27.08
2023-02-14T05:21:18.269Z,36.85
2023-02-14T05:26:19.897Z,26.92
2023-02-14T05:31:21.612Z,41.97
2023-02-14T05:36:23.477Z,46.10
2023-02-14T05:41:25.062Z,75.40
2023-02-14T05:46:26.679Z,30.15
2023-02-14T05:51:28.316Z,47.40
2023-02-14T05:56:29.897Z,22.55
2023-02-14T06:01:32.041Z,43.42
2023-02-14T06:06:36.277Z,42.22
2023-02-14T06:11:38.200Z,42.92
2023-02-14T06:16:39.853Z,38.88
2023-02-14T06:21:41.483Z,32.58
2023-02-14T06:26:43.077Z,28.58
2023-02-14T06:31:44.915Z,25.35
2023-02-14T06:36:46.659Z,27.20
2023-02-14T06:41:48.298Z,24.05
2023-02-14T06:46:49.916Z,23.40
2023-02-14T06:51:51.526Z,35.33
2023-02-14T06:56:53.135Z,55.75
2023-02-14T07:01:54.750Z,34.00
2023-02-14T07:06:56.998Z,31.23
2023-02-14T07:11:58.616Z,33.05
2023-02-14T07:17:01.318Z,27.05
2023-02-14T07:22:03.133Z,41.25
2023-02-14T07:27:04.764Z,44.50
2023-02-14T07:32:06.621Z,191.80
2023-02-14T07:37:08.496Z,232.20
2023-02-14T07:42:12.344Z,434.90
2023-02-14T07:47:13.990Z,445.20
2023-02-14T07:52:15.706Z,202.27
2023-02-14T07:57:17.679Z,456.02
2023-02-14T08:02:21.065Z,199.27
2023-02-14T08:07:22.636Z,289.67
2023-02-14T08:12:43.026Z,266.70
2023-02-14T08:17:44.635Z,147.50
2023-02-14T08:22:46.297Z,371.30
2023-02-14T08:27:47.950Z,232.93
2023-02-14T08:32:49.655Z,356.10
2023-02-14T08:37:51.306Z,392.15
2023-02-14T08:42:52.922Z,400.70
2023-02-14T08:47:54.558Z,422.42
2023-02-14T08:52:56.351Z,364.50
2023-02-14T08:57:58.197Z,391.40
2023-02-14T09:03:00.029Z,454.30
2023-02-14T09:08:03.101Z,431.05
2023-02-14T09:13:04.902Z,264.13
2023-02-14T09:18:06.537Z,353.50
2023-02-14T09:23:08.149Z,166.00
2023-02-14T09:28:10.023Z,146.48
2023-02-14T09:33:11.668Z,90.82
2023-02-14T09:38:13.240Z,128.30
2023-02-14T09:43:23.383Z,144.32
2023-02-14T09:48:38.433Z,149.73
2023-02-14T09:53:45.495Z,215.30
2023-02-14T09:59:03.877Z,187.68
2023-02-14T10:04:17.226Z,127.50
2023-02-14T10:09:40.874Z,102.40
2023-02-14T10:14:43.748Z,140.48
2023-02-14T10:19:52.995Z,109.57
2023-02-14T10:25:04.956Z,70.55
2023-02-14T10:30:22.109Z,66.85
2023-02-14T10:35:46.721Z,54.85
2023-02-14T10:41:14.510Z,49.20
2023-02-14T10:46:28.600Z,54.15
2023-02-14T10:51:46.044Z,40.90
2023-02-14T10:57:00.649Z,42.25
2023-02-14T11:02:02.482Z,40.78
2023-02-14T11:07:13.526Z,40.67
2023-02-14T11:12:37.558Z,42.08
2023-02-14T11:17:39.186Z,37.85
2023-02-14T11:22:41.285Z,37.10
2023-02-14T11:27:49.892Z,39.03
2023-02-14T11:32:55.185Z,38.97
2023-02-14T11:37:57.962Z,42.55
2023-02-14T11:43:17.354Z,38.25
2023-02-14T11:48:37.631Z,42.83
2023-02-14T11:53:56.081Z,38.83
2023-02-14T11:59:03.442Z,39.03
2023-02-14T12:04:19.789Z,34.10
2023-02-14T12:09:28.148Z,32.90
2023-02-14T12:14:32.645Z,34.67
2023-02-14T12:19:51.825Z,30.35
2023-02-14T12:25:07.632Z,30.08
2023-02-14T12:30:18.239Z,29.17
2023-02-14T12:35:28.253Z,33.20
2023-02-14T12:40:49.246Z,34.92
2023-02-14T12:46:03.094Z,45.85
2023-02-14T12:51:30.071Z,46.80
2023-02-14T12:56:51.727Z,42.72
2023-02-14T13:01:54.078Z,42.47
2023-02-14T13:07:13.827Z,40.85
2023-02-14T13:12:43.549Z,40.78
2023-02-14T13:17:56.446Z,44.85
2023-02-14T13:23:04.278Z,37.30
2023-02-14T13:28:13.122Z,38.15
2023-02-14T13:33:41.555Z,40.17
2023-02-14T13:38:46.677Z,35.25
2023-02-14T13:43:51.177Z,32.28
2023-02-14T13:49:21.947Z,33.13
2023-02-14T13:54:34.394Z,34.10
2023-02-14T13:59:36.278Z,29.05
2023-02-14T14:04:38.281Z,28.70
2023-02-14T14:09:42.874Z,29.63
2023-02-14T14:15:04.422Z,26.23
2023-02-14T14:25:32.782Z,29.92
2023-02-14T14:30:34.511Z,32.05
2023-02-14T14:35:36.304Z,29.73
2023-02-14T14:40:38.501Z,26.23
2023-02-14T14:45:42.336Z,28.23
2023-02-14T14:50:47.830Z,31.08
2023-02-14T14:55:52.234Z,34.05
2023-02-14T15:00:54.733Z,31.83
2023-02-14T15:06:17.393Z,35.03
2023-02-14T15:11:42.081Z,31.38
2023-02-14T15:16:48.788Z,36.28
2023-02-14T15:21:50.597Z,35.22
2023-02-14T15:26:53.499Z,32.83
2023-02-14T15:31:57.576Z,37.38
2023-02-14T15:37:06.229Z,33.05
2023-02-14T15:42:25.869Z,31.75
2023-02-14T15:47:27.547Z,32.38
2023-02-14T15:52:29.300Z,33.50
2023-02-14T15:57:30.951Z,32.88
2023-02-14T16:02:38.946Z,33.67
2023-02-14T16:07:40.622Z,35.65
2023-02-14T16:12:42.429Z,35.33
2023-02-14T16:17:44.158Z,35.58
2023-02-14T16:22:45.755Z,35.63
2023-02-14T16:27:47.418Z,38.97
2023-02-14T16:32:50.808Z,41.17
2023-02-14T16:37:52.945Z,34.42
2023-02-14T16:42:55.322Z,41.15
2023-02-14T16:47:56.955Z,37.13
2023-02-14T16:52:58.647Z,36.92
2023-02-14T16:58:01.894Z,37.40
2023-02-14T17:03:06.346Z,40.17
2023-02-14T17:08:11.809Z,40.42
2023-02-14T17:13:15.792Z,36.72
2023-02-14T17:18:19.943Z,42.83
2023-02-14T17:23:23.449Z,38.22
2023-02-14T17:28:26.634Z,47.92
2023-02-14T17:33:30.666Z,45.75
2023-02-14T17:38:33.610Z,42.17
2023-02-14T17:43:35.866Z,42.17
2023-02-14T17:48:37.566Z,45.72
2023-02-14T17:53:41.403Z,47.75
2023-02-14T17:58:47.907Z,46.20
2023-02-14T18:03:51.885Z,43.50
2023-02-14T18:08:57.041Z,49.30
2023-02-14T18:13:59.794Z,46.47
2023-02-14T18:19:05.516Z,41.88
2023-02-14T18:24:07.540Z,48.53
2023-02-14T18:29:10.402Z,52.03
2023-02-14T18:34:12.160Z,52.38
2023-02-14T18:39:13.820Z,53.47
2023-02-14T18:44:15.411Z,48.50
2023-02-14T18:49:17.040Z,50.00
2023-02-14T18:54:19.297Z,52.10
2023-02-14T18:59:20.941Z,54.88
2023-02-14T19:04:22.547Z,55.95
2023-02-14T19:09:27.388Z,56.78
2023-02-14T19:14:29.004Z,58.35
2023-02-14T19:19:31.556Z,61.42
2023-02-14T19:24:33.149Z,54.63
2023-02-14T19:29:34.963Z,61.97
2023-02-14T19:34:38.408Z,56.78
2023-02-14T19:39:39.992Z,62.83
2023-02-14T19:44:41.566Z,64.72
2023-02-14T19:49:43.608Z,59.60
2023-02-14T19:54:45.657Z,58.65
2023-02-14T19:59:47.773Z,62.28
2023-02-14T20:04:49.584Z,60.47
2023-02-14T20:09:51.172Z,62.10
2023-02-14T20:14:54.487Z,60.88
2023-02-14T20:19:57.313Z,70.63
2023-02-14T20:24:59.393Z,72.68
2023-02-14T20:30:01.552Z,64.72
2023-02-14T20:35:04.314Z,94.97
2023-02-14T20:40:10.165Z,74.60
2023-02-14T20:45:12.580Z,114.97
2023-02-14T20:50:14.804Z,205.95
2023-02-14T20:55:17.396Z,231.80
2023-02-14T21:00:19.969Z,117.95
2023-02-14T21:05:22.049Z,116.10
2023-02-14T21:10:24.005Z,194.45
2023-02-14T21:15:26.585Z,334.88
2023-02-14T21:20:29.041Z,268.88
2023-02-14T21:25:32.438Z,149.93
2023-02-14T21:30:34.156Z,138.38
2023-02-14T21:35:37.841Z,103.07
2023-02-14T21:40:39.667Z,134.95
2023-02-14T21:45:55.089Z,139.07
2023-02-14T21:50:57.914Z,125.85
2023-02-14T21:56:11.724Z,113.72
2023-02-14T22:01:38.682Z,138.35
2023-02-14T22:06:42.790Z,91.15
2023-02-14T22:11:47.627Z,99.07
2023-02-14T22:16:49.234Z,85.57
2023-02-14T22:21:50.858Z,106.18
2023-02-14T22:26:52.436Z,117.80
2023-02-14T22:31:54.112Z,83.18
2023-02-14T22:36:55.855Z,88.55
2023-02-14T22:41:57.565Z,116.43
2023-02-14T22:46:59.221Z,254.38
2023-02-14T22:52:00.857Z,90.03
2023-02-14T22:57:02.491Z,101.35
2023-02-14T23:02:04.275Z,94.63
2023-02-14T23:07:05.950Z,88.65
2023-02-14T23:12:27.529Z,89.28
2023-02-14T23:23:08.921Z,78.13
2023-02-14T23:28:10.492Z,84.72
2023-02-14T23:33:12.065Z,179.30
2023-02-14T23:38:13.683Z,89.47
2023-02-14T23:43:15.276Z,110.13
2023-02-14T23:48:16.933Z,71.97
2023-02-14T23:53:18.761Z,100.90
2023-02-14T23:58:20.360Z,115.95
